Time;durP1;ratioP1;P1;durP2;ratioP2;P2;SDS_P1;SDS_P2;PMS_P1;PMS_P2;Temp;Humidity;BMP_temperature;BMP_pressure;BME280_temperature;BME280_humidity;BME280_pressure;Samples;Min_cycle;Max_cycle;Signal;HPM_P1;HPM_P2
2023/05/09 00:00:38;;;;;;;3.30;0.68;;;24.70;41.30;;;;;;4143358;28;20593;-61
2023/05/09 00:03:04;;;;;;;1.67;0.60;;;24.90;41.00;;;;;;4139030;28;20030;-61
2023/05/09 00:05:27;;;;;;;0.82;0.45;;;25.10;40.80;;;;;;4133677;28;20073;-62
2023/05/09 00:07:51;;;;;;;1.15;0.70;;;25.20;40.50;;;;;;4140304;28;20859;-63
2023/05/09 00:10:14;;;;;;;1.03;0.70;;;25.40;40.50;;;;;;4138222;28;20044;-60
2023/05/09 00:12:36;;;;;;;1.98;0.75;;;25.50;40.30;;;;;;4143177;28;20450;-64
2023/05/09 00:14:59;;;;;;;1.17;0.55;;;25.70;40.10;;;;;;4138151;28;20025;-58
2023/05/09 00:17:23;;;;;;;1.98;0.60;;;25.80;39.80;;;;;;4144017;28;20046;-63
2023/05/09 00:19:46;;;;;;;0.80;0.63;;;25.90;39.70;;;;;;4130060;28;20046;-60
2023/05/09 00:22:09;;;;;;;1.15;0.60;;;26.00;39.60;;;;;;4145520;28;20096;-61
2023/05/09 00:24:32;;;;;;;3.40;0.75;;;25.60;39.60;;;;;;4144408;28;20041;-61
2023/05/09 00:26:54;;;;;;;6.63;0.88;;;25.20;40.10;;;;;;4142730;28;20466;-58
2023/05/09 00:29:17;;;;;;;1.08;0.73;;;24.80;40.70;;;;;;4139664;28;20029;-60
2023/05/09 00:31:39;;;;;;;2.83;0.60;;;24.40;41.20;;;;;;4141005;28;20061;-59
2023/05/09 00:34:02;;;;;;;4.43;0.80;;;24.10;42.10;;;;;;4143322;28;20038;-58
2023/05/09 00:36:24;;;;;;;9.18;0.93;;;23.80;42.00;;;;;;4145637;28;20041;-59
2023/05/09 00:38:47;;;;;;;2.30;1.08;;;23.60;42.20;;;;;;4144145;28;20092;-56
2023/05/09 00:41:10;;;;;;;1.52;0.50;;;23.40;43.00;;;;;;4144417;28;20057;-56
2023/05/09 00:43:33;;;;;;;1.92;0.40;;;23.30;42.70;;;;;;4143021;28;20517;-57
2023/05/09 00:45:55;;;;;;;1.73;0.50;;;23.10;42.90;;;;;;4143514;28;20461;-61
2023/05/09 00:48:18;;;;;;;1.27;0.50;;;22.90;43.10;;;;;;4142403;28;20525;-59
2023/05/09 00:50:41;;;;;;;2.10;0.60;;;22.80;43.50;;;;;;4144962;28;20030;-59
2023/05/09 00:53:04;;;;;;;1.17;0.70;;;22.70;43.70;;;;;;4143973;28;20037;-59
2023/05/09 00:55:27;;;;;;;2.20;0.50;;;22.60;43.90;;;;;;4144681;28;20026;-58
2023/05/09 00:57:50;;;;;;;1.95;0.70;;;22.50;43.90;;;;;;4143230;28;20121;-62
2023/05/09 01:00:13;;;;;;;2.22;0.47;;;22.40;44.10;;;;;;4141775;28;20053;-57
2023/05/09 01:02:36;;;;;;;0.80;0.50;;;22.30;44.40;;;;;;4143725;28;20033;-59
2023/05/09 01:04:58;;;;;;;2.50;0.60;;;22.20;44.40;;;;;;4144250;28;20620;-58
2023/05/09 01:07:27;;;;;;;0.30;0.30;;;22.10;44.60;;;;;;4141517;28;20049;-60
2023/05/09 01:10:00;;;;;;;2.90;0.40;;;22.00;44.80;;;;;;4142476;28;20040;-56
2023/05/09 01:12:45;;;;;;;0.88;0.40;;;22.00;44.90;;;;;;4142857;28;20179;-56
2023/05/09 01:15:14;;;;;;;;;;;21.90;45.20;;;;;;4142329;28;20080;-60
2023/05/09 01:17:55;;;;;;;1.23;0.60;;;21.70;45.20;;;;;;4142280;28;20365;-59
2023/05/09 01:20:33;;;;;;;1.65;0.50;;;21.70;45.40;;;;;;4141542;28;20464;-59
2023/05/09 01:23:21;;;;;;;0.45;0.40;;;21.60;45.50;;;;;;4140385;28;20045;-55
2023/05/09 01:25:55;;;;;;;1.80;0.47;;;21.50;45.80;;;;;;4131227;28;20505;-52
2023/05/09 01:28:26;;;;;;;1.23;0.50;;;21.40;45.80;;;;;;4143733;28;20049;-57
2023/05/09 01:30:51;;;;;;;0.95;0.52;;;21.40;46.00;;;;;;4139078;28;20567;-58
2023/05/09 01:33:18;;;;;;;0.35;0.35;;;21.30;46.20;;;;;;4142574;28;20501;-55
2023/05/09 01:35:46;;;;;;;1.85;0.60;;;21.20;46.20;;;;;;4130730;28;20117;-60
2023/05/09 01:38:12;;;;;;;0.65;0.40;;;21.20;46.40;;;;;;4142722;28;20033;-64
2023/05/09 01:40:36;;;;;;;0.32;0.30;;;21.10;46.50;;;;;;4142184;28;20058;-59
2023/05/09 01:43:05;;;;;;;1.13;0.50;;;21.10;46.60;;;;;;4141488;28;20038;-59
2023/05/09 01:45:28;;;;;;;0.73;0.40;;;21.00;46.60;;;;;;4143734;28;20045;-59
2023/05/09 01:47:51;;;;;;;0.82;0.60;;;21.00;46.80;;;;;;4143421;28;20104;-59
2023/05/09 01:50:16;;;;;;;1.20;0.50;;;20.90;46.80;;;;;;4142419;28;20545;-61
2023/05/09 01:52:42;;;;;;;1.67;0.55;;;20.90;47.00;;;;;;4143044;28;20489;-62
2023/05/09 01:55:06;;;;;;;1.08;0.50;;;20.80;47.10;;;;;;4143885;28;20041;-59
2023/05/09 01:57:29;;;;;;;1.05;0.50;;;20.80;47.20;;;;;;4143514;28;20046;-55
2023/05/09 01:59:52;;;;;;;1.17;0.40;;;20.80;47.30;;;;;;4134418;28;20060;-59
2023/05/09 02:02:16;;;;;;;0.85;0.32;;;20.70;47.40;;;;;;4143113;28;20038;-61
2023/05/09 02:04:41;;;;;;;0.90;0.43;;;20.70;47.50;;;;;;4139663;28;20065;-58
2023/05/09 02:07:05;;;;;;;0.60;0.40;;;20.70;47.60;;;;;;4143604;28;20501;-59
2023/05/09 02:09:27;;;;;;;0.60;0.40;;;20.60;48.00;;;;;;4141572;28;20152;-59
2023/05/09 02:11:50;;;;;;;1.73;0.50;;;20.60;48.00;;;;;;4143519;28;20557;-63
2023/05/09 02:14:16;;;;;;;1.65;0.50;;;20.60;47.90;;;;;;4143161;28;20041;-61
2023/05/09 02:16:39;;;;;;;1.20;0.50;;;20.50;47.90;;;;;;4143823;28;20391;-59
2023/05/09 02:19:02;;;;;;;1.15;0.50;;;20.50;48.20;;;;;;4141464;28;20038;-56
2023/05/09 02:21:25;;;;;;;0.70;0.50;;;20.50;48.20;;;;;;4134496;28;20061;-53
2023/05/09 02:23:47;;;;;;;0.68;0.50;;;20.50;48.30;;;;;;4143025;28;20104;-59
2023/05/09 02:26:10;;;;;;;0.77;0.60;;;20.40;48.30;;;;;;4140532;28;20052;-62
2023/05/09 02:28:33;;;;;;;1.33;0.60;;;20.40;48.30;;;;;;4139216;28;20131;-58
2023/05/09 02:30:58;;;;;;;1.92;0.60;;;20.40;48.50;;;;;;4142313;28;20040;-58
2023/05/09 02:33:20;;;;;;;6.97;0.63;;;20.40;48.70;;;;;;4139789;28;20048;-59
2023/05/09 02:35:45;;;;;;;2.10;0.60;;;20.30;48.70;;;;;;4140746;28;20576;-60
2023/05/09 02:38:08;;;;;;;2.72;0.90;;;20.30;48.80;;;;;;4142693;28;20054;-59
2023/05/09 02:40:31;;;;;;;1.33;0.40;;;20.40;49.00;;;;;;4142188;28;20054;-58
2023/05/09 02:42:53;;;;;;;3.17;1.00;;;20.30;48.80;;;;;;4142798;28;20042;-59
2023/05/09 02:45:16;;;;;;;6.57;1.38;;;20.30;49.00;;;;;;4143496;28;20418;-52
2023/05/09 02:47:38;;;;;;;3.10;0.75;;;20.30;49.10;;;;;;4141520;28;20061;-52
2023/05/09 02:50:01;;;;;;;6.22;1.17;;;20.30;49.20;;;;;;4141252;28;20034;-52
2023/05/09 02:52:23;;;;;;;4.85;1.20;;;20.30;50.00;;;;;;4143977;28;20034;-57
2023/05/09 02:54:47;;;;;;;1.45;0.57;;;20.30;50.10;;;;;;4140347;28;20046;-47
2023/05/09 02:57:09;;;;;;;4.60;0.82;;;20.30;50.90;;;;;;4139960;28;20552;-52
2023/05/09 02:59:32;;;;;;;3.80;0.70;;;20.30;51.30;;;;;;4140464;28;20058;-56
2023/05/09 03:01:55;;;;;;;5.18;1.05;;;20.30;51.40;;;;;;4141135;28;20034;-49
2023/05/09 03:04:18;;;;;;;3.03;0.87;;;20.30;51.20;;;;;;4141827;28;20354;-54
2023/05/09 03:06:41;;;;;;;4.18;1.30;;;20.30;51.40;;;;;;4138356;28;20058;-54
2023/05/09 03:09:03;;;;;;;6.97;2.70;;;20.30;51.30;;;;;;4140943;28;20046;-50
2023/05/09 03:11:26;;;;;;;6.47;3.50;;;20.30;51.30;;;;;;4136274;28;20038;-52
2023/05/09 03:13:49;;;;;;;5.47;4.10;;;20.30;51.30;;;;;;4141375;28;20202;-47
2023/05/09 03:16:17;;;;;;;5.22;4.60;;;20.30;51.40;;;;;;4125899;28;20048;-51
2023/05/09 03:18:39;;;;;;;7.28;5.20;;;20.30;51.30;;;;;;4133266;28;20082;-53
2023/05/09 03:21:02;;;;;;;7.53;6.18;;;20.30;51.20;;;;;;4142543;28;20034;-49
2023/05/09 03:23:24;;;;;;;11.50;8.20;;;20.30;51.10;;;;;;4139162;28;20038;-50
2023/05/09 03:25:46;;;;;;;10.93;8.50;;;20.30;51.10;;;;;;4140468;28;20042;-53
2023/05/09 03:28:09;;;;;;;11.77;8.82;;;20.30;51.10;;;;;;4141280;28;20053;-57
2023/05/09 03:30:31;;;;;;;10.75;9.65;;;20.30;51.20;;;;;;4140450;28;20030;-54
2023/05/09 03:32:54;;;;;;;13.05;9.45;;;20.30;51.30;;;;;;4135931;28;20160;-55
2023/05/09 03:35:16;;;;;;;11.75;10.50;;;20.30;51.40;;;;;;4139434;28;20084;-52
2023/05/09 03:37:38;;;;;;;11.40;10.20;;;20.30;51.30;;;;;;4138955;28;20038;-49
2023/05/09 03:40:01;;;;;;;12.30;9.40;;;20.30;51.40;;;;;;4126109;28;20054;-48
2023/05/09 03:42:23;;;;;;;10.68;9.57;;;20.30;51.50;;;;;;4142030;28;20050;-55
2023/05/09 03:44:46;;;;;;;9.60;8.60;;;20.30;51.50;;;;;;4139799;28;20042;-54
2023/05/09 03:47:08;;;;;;;9.40;8.35;;;20.30;51.70;;;;;;4142128;28;20053;-52
2023/05/09 03:49:31;;;;;;;11.70;9.10;;;20.30;51.70;;;;;;4140090;28;20041;-46
2023/05/09 03:51:53;;;;;;;10.48;9.30;;;20.30;51.70;;;;;;4142028;28;20147;-51
2023/05/09 03:54:15;;;;;;;10.82;8.70;;;20.30;51.70;;;;;;4139891;28;20116;-53
2023/05/09 03:56:38;;;;;;;10.88;8.32;;;20.30;51.70;;;;;;4141727;28;20487;-48
2023/05/09 03:59:00;;;;;;;8.23;7.30;;;20.30;51.80;;;;;;4141142;28;20048;-52
2023/05/09 04:01:22;;;;;;;8.48;7.57;;;20.30;51.80;;;;;;4140877;28;20148;-48
2023/05/09 04:03:45;;;;;;;8.57;7.50;;;20.30;52.00;;;;;;4142947;28;20042;-50
2023/05/09 04:06:08;;;;;;;7.93;6.78;;;20.30;51.90;;;;;;4127785;28;20492;-56
2023/05/09 04:08:31;;;;;;;9.18;7.95;;;20.30;51.80;;;;;;4139812;28;20041;-53
2023/05/09 04:10:53;;;;;;;9.43;7.80;;;20.40;51.20;;;;;;4142705;28;20034;-58
2023/05/09 04:13:16;;;;;;;10.65;7.65;;;20.40;51.30;;;;;;4138190;28;20045;-49
2023/05/09 04:15:38;;;;;;;9.20;7.07;;;20.40;51.20;;;;;;4141677;28;20030;-59
2023/05/09 04:18:01;;;;;;;8.38;6.90;;;20.40;51.20;;;;;;4138207;28;20496;-58
2023/05/09 04:20:23;;;;;;;8.73;7.05;;;20.40;51.10;;;;;;4142135;28;20382;-59
2023/05/09 04:22:46;;;;;;;8.70;6.57;;;20.40;51.00;;;;;;4143194;28;20461;-56
2023/05/09 04:25:13;;;;;;;9.02;6.45;;;20.40;51.10;;;;;;4143698;28;20062;-57
2023/05/09 04:27:35;;;;;;;8.05;6.22;;;20.40;51.20;;;;;;4143694;28;20046;-54
2023/05/09 04:29:57;;;;;;;7.68;5.78;;;20.40;51.10;;;;;;4145011;28;20813;-58
2023/05/09 04:32:22;;;;;;;8.52;5.68;;;20.40;51.30;;;;;;4144593;28;20049;-56
2023/05/09 04:34:44;;;;;;;6.18;4.97;;;20.40;51.60;;;;;;4139756;28;20046;-59
2023/05/09 04:37:06;;;;;;;6.60;4.95;;;20.40;51.30;;;;;;4142946;28;20116;-56
2023/05/09 04:39:29;;;;;;;8.15;5.10;;;20.40;51.40;;;;;;4144227;28;20176;-59
2023/05/09 04:41:51;;;;;;;7.95;4.75;;;20.30;51.70;;;;;;4145700;28;20409;-60
2023/05/09 04:44:14;;;;;;;6.45;3.83;;;20.40;51.70;;;;;;4136908;28;20050;-53
2023/05/09 04:46:36;;;;;;;5.68;3.88;;;20.30;51.80;;;;;;4144294;28;20037;-53
2023/05/09 04:48:59;;;;;;;5.60;3.90;;;20.30;51.60;;;;;;4143138;28;20478;-60
2023/05/09 04:51:21;;;;;;;6.43;3.80;;;20.30;51.60;;;;;;4144932;28;20034;-58
2023/05/09 04:53:44;;;;;;;4.97;3.30;;;20.30;51.80;;;;;;4143443;28;20059;-59
2023/05/09 04:56:06;;;;;;;9.63;3.38;;;20.30;51.70;;;;;;4138213;28;20030;-58
2023/05/09 04:58:29;;;;;;;4.47;3.10;;;20.30;51.60;;;;;;4143387;28;20038;-48
2023/05/09 05:00:52;;;;;;;41.33;4.45;;;20.30;51.70;;;;;;4143511;28;20038;-56
2023/05/09 05:03:16;;;;;;;7.38;2.90;;;20.30;51.60;;;;;;4141896;28;20038;-59
2023/05/09 05:05:40;;;;;;;5.88;3.00;;;20.30;51.60;;;;;;4140357;28;20042;-59
2023/05/09 05:08:02;;;;;;;5.65;2.65;;;20.30;51.60;;;;;;4142316;28;20049;-59
2023/05/09 05:10:25;;;;;;;5.43;2.65;;;20.30;51.60;;;;;;4143726;28;20052;-62
2023/05/09 05:12:47;;;;;;;5.03;2.72;;;20.30;51.60;;;;;;4141763;28;20037;-58
2023/05/09 05:15:10;;;;;;;6.43;2.40;;;20.30;51.70;;;;;;4137206;28;20041;-58
2023/05/09 05:17:33;;;;;;;4.90;2.30;;;20.30;51.80;;;;;;4143767;28;20417;-60
2023/05/09 05:19:55;;;;;;;3.95;1.90;;;20.40;51.90;;;;;;4134987;28;20034;-59
2023/05/09 05:22:17;;;;;;;3.67;1.92;;;20.40;51.70;;;;;;4129222;28;20451;-56
2023/05/09 05:24:40;;;;;;;3.67;1.90;;;20.30;51.70;;;;;;4139140;28;20038;-58
2023/05/09 05:27:02;;;;;;;5.75;2.00;;;20.30;51.70;;;;;;4141306;28;20057;-58
2023/05/09 05:29:25;;;;;;;6.32;2.38;;;20.30;51.80;;;;;;4141688;28;20038;-62
2023/05/09 05:31:47;;;;;;;2.95;1.92;;;20.30;52.00;;;;;;4141254;28;20479;-60
2023/05/09 05:34:09;;;;;;;6.43;2.30;;;20.30;52.40;;;;;;4139426;28;20042;-60
2023/05/09 05:36:32;;;;;;;21.63;2.72;;;20.40;52.30;;;;;;4137119;28;20061;-58
2023/05/09 05:38:54;;;;;;;3.42;1.60;;;20.40;52.00;;;;;;4144119;28;20591;-57
2023/05/09 05:41:17;;;;;;;6.85;1.90;;;20.40;51.80;;;;;;4143109;28;20136;-61
2023/05/09 05:43:40;;;;;;;2.67;1.45;;;20.40;51.90;;;;;;4143507;28;20034;-61
2023/05/09 05:46:03;;;;;;;4.22;1.40;;;20.40;52.10;;;;;;4143390;28;20065;-59
2023/05/09 05:48:25;;;;;;;1.77;1.33;;;20.40;52.10;;;;;;4142021;28;20099;-60
2023/05/09 05:50:48;;;;;;;2.20;1.17;;;20.40;52.10;;;;;;4135884;28;20038;-60
2023/05/09 05:53:10;;;;;;;2.28;1.20;;;20.40;52.00;;;;;;4128986;28;20042;-59
2023/05/09 05:55:33;;;;;;;2.42;1.00;;;20.40;52.00;;;;;;4134040;28;20048;-60
2023/05/09 05:57:55;;;;;;;5.90;1.08;;;20.40;52.00;;;;;;4141332;28;20037;-58
2023/05/09 06:00:19;;;;;;;3.92;1.33;;;20.30;52.10;;;;;;4135849;28;20045;-56
2023/05/09 06:02:46;;;;;;;2.60;1.58;;;20.30;52.10;;;;;;4140303;28;20417;-54
2023/05/09 06:05:09;;;;;;;2.92;1.02;;;20.30;52.30;;;;;;4138173;28;20026;-55
2023/05/09 06:07:31;;;;;;;4.80;1.17;;;20.30;52.40;;;;;;4119278;28;20050;-54
2023/05/09 06:09:55;;;;;;;4.53;1.30;;;20.30;52.80;;;;;;4138210;28;20272;-58
2023/05/09 06:12:17;;;;;;;3.92;1.30;;;20.30;52.80;;;;;;4141766;28;20072;-57
2023/05/09 06:14:40;;;;;;;2.35;1.00;;;20.40;52.80;;;;;;4134935;28;20065;-53
2023/05/09 06:17:02;;;;;;;2.20;0.98;;;20.40;52.80;;;;;;4139921;28;20046;-55
2023/05/09 06:19:25;;;;;;;1.98;0.88;;;20.40;52.70;;;;;;4140959;28;20050;-52
2023/05/09 06:21:47;;;;;;;3.45;1.00;;;20.40;52.60;;;;;;4135532;28;20034;-57
2023/05/09 06:24:10;;;;;;;3.85;0.70;;;20.50;52.60;;;;;;4138044;28;20079;-59
2023/05/09 06:26:33;;;;;;;5.63;1.15;;;20.50;52.60;;;;;;4141435;28;20042;-58
2023/05/09 06:28:55;;;;;;;1.67;0.90;;;20.50;52.80;;;;;;4138860;28;20040;-50
2023/05/09 06:31:17;;;;;;;2.75;0.90;;;20.50;52.70;;;;;;4142259;28;20037;-58
2023/05/09 06:33:40;;;;;;;2.25;0.55;;;20.60;52.80;;;;;;4141985;28;20038;-57
2023/05/09 06:36:02;;;;;;;3.80;0.90;;;20.70;52.60;;;;;;4143353;28;20045;-60
2023/05/09 06:38:25;;;;;;;8.07;2.05;;;20.80;52.50;;;;;;4139068;28;20050;-58
2023/05/09 06:40:47;;;;;;;5.88;0.93;;;20.80;52.50;;;;;;4141251;28;20056;-58
2023/05/09 06:43:10;;;;;;;5.80;1.08;;;20.90;52.50;;;;;;4135932;28;20504;-58
2023/05/09 06:45:33;;;;;;;4.72;1.08;;;21.40;52.30;;;;;;4139956;28;20156;-64
2023/05/09 06:47:55;;;;;;;4.22;1.20;;;21.90;50.10;;;;;;4135986;28;20104;-51
2023/05/09 06:50:18;;;;;;;5.45;1.35;;;22.40;48.60;;;;;;4141562;28;20529;-56
2023/05/09 06:52:40;;;;;;;5.47;1.33;;;22.30;48.20;;;;;;4141160;28;20106;-54
2023/05/09 06:55:03;;;;;;;4.13;1.17;;;21.90;48.80;;;;;;4141146;28;20605;-52
2023/05/09 06:57:25;;;;;;;2.55;0.90;;;21.60;49.60;;;;;;4142879;28;20052;-51
2023/05/09 06:59:48;;;;;;;3.33;0.90;;;21.30;50.40;;;;;;4139807;28;20127;-51
2023/05/09 07:02:10;;;;;;;3.70;0.90;;;21.00;51.00;;;;;;4138567;28;20044;-52
2023/05/09 07:04:33;;;;;;;4.05;0.70;;;20.80;51.50;;;;;;4137644;28;20041;-53
2023/05/09 07:06:55;;;;;;;4.25;0.75;;;20.70;51.90;;;;;;4141266;28;20149;-52
2023/05/09 07:09:19;;;;;;;4.07;0.85;;;20.60;52.20;;;;;;4140774;28;20125;-55
2023/05/09 07:11:42;;;;;;;1.23;0.60;;;20.50;52.50;;;;;;4136543;28;20073;-54
2023/05/09 07:14:04;;;;;;;4.53;0.90;;;20.50;52.90;;;;;;4139988;28;20034;-54
2023/05/09 07:16:28;;;;;;;2.10;0.82;;;20.40;53.10;;;;;;4139801;28;20037;-54
2023/05/09 07:18:50;;;;;;;2.55;0.50;;;20.40;53.30;;;;;;4141463;28;20564;-56
2023/05/09 07:21:12;;;;;;;2.92;0.50;;;20.30;53.40;;;;;;4140199;28;20038;-53
2023/05/09 07:23:35;;;;;;;1.27;0.50;;;20.30;53.40;;;;;;4140673;28;20069;-58
2023/05/09 07:25:58;;;;;;;2.13;0.80;;;20.30;53.40;;;;;;4132101;28;20044;-57
2023/05/09 07:28:20;;;;;;;1.83;0.65;;;20.30;53.50;;;;;;4136443;28;20275;-57
2023/05/09 07:30:43;;;;;;;1.77;0.90;;;20.30;53.50;;;;;;4132788;28;20050;-57
2023/05/09 07:33:06;;;;;;;2.05;0.80;;;20.20;53.60;;;;;;4140160;28;20153;-57
2023/05/09 07:35:28;;;;;;;2.40;0.83;;;20.20;53.50;;;;;;4136367;28;20046;-60
2023/05/09 07:37:51;;;;;;;2.25;0.80;;;20.20;53.70;;;;;;4135139;28;20348;-59
2023/05/09 07:40:14;;;;;;;2.17;0.77;;;20.10;53.60;;;;;;4139338;28;20053;-56
2023/05/09 07:42:37;;;;;;;3.03;0.98;;;20.10;53.70;;;;;;4143354;28;20037;-58
2023/05/09 07:44:59;;;;;;;3.37;1.00;;;20.10;53.70;;;;;;4138287;28;20500;-58
2023/05/09 07:47:22;;;;;;;1.65;0.60;;;20.10;53.80;;;;;;4142952;28;20053;-57
2023/05/09 07:49:45;;;;;;;2.47;1.00;;;20.10;53.80;;;;;;4140309;28;20054;-52
2023/05/09 07:52:07;;;;;;;5.03;2.70;;;20.10;54.00;;;;;;4143408;28;20124;-54
2023/05/09 07:54:30;;;;;;;8.68;3.42;;;20.10;53.20;;;;;;4145849;28;20048;-54
2023/05/09 07:56:53;;;;;;;7.38;3.58;;;20.00;52.90;;;;;;4143578;28;20042;-51
2023/05/09 07:59:17;;;;;;;6.72;3.17;;;20.00;52.70;;;;;;4145283;28;20044;-52
2023/05/09 08:01:39;;;;;;;8.30;3.45;;;20.00;52.80;;;;;;4144209;28;20030;-53
2023/05/09 08:04:03;;;;;;;7.43;3.17;;;19.90;52.80;;;;;;4145088;28;20038;-53
2023/05/09 08:06:26;;;;;;;8.32;3.22;;;19.90;52.90;;;;;;4141806;28;20037;-50
2023/05/09 08:08:48;;;;;;;9.43;3.80;;;19.80;53.10;;;;;;4123560;28;20042;-50
2023/05/09 08:11:11;;;;;;;8.07;3.13;;;19.80;53.20;;;;;;4143193;28;20045;-52
2023/05/09 08:13:33;;;;;;;8.13;3.03;;;19.80;53.30;;;;;;4137942;28;20034;-57
2023/05/09 08:15:56;;;;;;;8.20;2.80;;;19.70;53.40;;;;;;4143285;28;20038;-47
2023/05/09 08:18:18;;;;;;;10.85;2.75;;;19.70;54.00;;;;;;4143974;28;20042;-55
2023/05/09 08:20:41;;;;;;;4.88;2.25;;;19.70;54.30;;;;;;4127473;28;20035;-56
2023/05/09 08:23:04;;;;;;;7.85;2.47;;;19.70;54.50;;;;;;4127381;28;20049;-54
2023/05/09 08:25:26;;;;;;;7.50;2.22;;;19.70;54.70;;;;;;4141656;28;20412;-59
2023/05/09 08:27:49;;;;;;;5.35;2.00;;;19.70;54.70;;;;;;4143811;28;20124;-59
2023/05/09 08:30:12;;;;;;;5.07;2.05;;;19.70;54.90;;;;;;4143836;28;20041;-59
2023/05/09 08:32:34;;;;;;;6.18;2.00;;;19.70;55.00;;;;;;4136736;28;20117;-59
2023/05/09 08:34:57;;;;;;;9.15;2.10;;;19.60;55.00;;;;;;4140884;28;20056;-48
2023/05/09 08:37:19;;;;;;;3.15;1.58;;;19.60;55.20;;;;;;4136119;28;20121;-59
2023/05/09 08:39:42;;;;;;;3.70;1.50;;;19.60;55.30;;;;;;4128624;28;20030;-58
2023/05/09 08:42:04;;;;;;;6.05;1.73;;;19.60;55.40;;;;;;4134571;28;20120;-51
2023/05/09 08:44:29;;;;;;;3.63;1.63;;;19.60;55.40;;;;;;4131601;28;20033;-59
2023/05/09 08:46:55;;;;;;;9.35;2.40;;;19.60;55.60;;;;;;4131351;28;20551;-60
2023/05/09 08:49:20;;;;;;;15.77;2.50;;;19.60;55.80;;;;;;4121344;28;20380;-58
2023/05/09 08:51:42;;;;;;;16.67;2.50;;;19.60;56.30;;;;;;4133990;28;20575;-59
2023/05/09 08:54:05;;;;;;;13.30;2.47;;;19.60;56.00;;;;;;4134377;28;20092;-59
2023/05/09 08:56:29;;;;;;;8.98;2.22;;;19.60;55.80;;;;;;4136277;28;20500;-58
2023/05/09 08:58:53;;;;;;;3.72;1.85;;;19.60;55.50;;;;;;4132198;28;20077;-58
2023/05/09 09:01:17;;;;;;;7.32;2.05;;;19.60;55.10;;;;;;4134615;28;20038;-58
2023/05/09 09:03:44;;;;;;;;;;;19.60;55.00;;;;;;4133862;28;20073;-58
2023/05/09 09:06:08;;;;;;;4.80;1.83;;;19.60;54.80;;;;;;4136731;28;19935;-59
2023/05/09 09:08:30;;;;;;;;;;;19.50;54.70;;;;;;4130019;28;20050;-58
2023/05/09 09:10:53;;;;;;;5.50;1.88;;;19.50;54.70;;;;;;4132880;28;20003;-58
2023/05/09 09:13:17;;;;;;;3.28;1.58;;;19.50;54.60;;;;;;4134711;28;20081;-58
2023/05/09 09:15:43;;;;;;;2.55;1.30;;;19.50;54.50;;;;;;4135014;28;20042;-58
2023/05/09 09:18:11;;;;;;;4.40;1.30;;;19.50;54.50;;;;;;4133611;28;20041;-58
2023/05/09 09:20:35;;;;;;;3.13;1.30;;;19.40;54.50;;;;;;4132107;28;20042;-58
2023/05/09 09:23:00;;;;;;;2.63;1.63;;;19.40;54.40;;;;;;4133513;28;20076;-59
2023/05/09 09:25:23;;;;;;;2.15;1.02;;;19.40;54.40;;;;;;4134951;28;20461;-58
2023/05/09 09:27:45;;;;;;;4.10;1.35;;;19.40;54.50;;;;;;4132189;28;20046;-58
2023/05/09 09:30:10;;;;;;;2.28;1.15;;;19.30;54.40;;;;;;4135383;28;20049;-58
2023/05/09 09:32:36;;;;;;;1.80;1.08;;;19.30;54.40;;;;;;4120605;28;20144;-58
2023/05/09 09:35:08;;;;;;;2.50;0.90;;;19.30;54.40;;;;;;4135898;28;20041;-56
2023/05/09 09:37:38;;;;;;;1.60;0.90;;;19.30;54.40;;;;;;4126881;28;20117;-59
2023/05/09 09:40:01;;;;;;;1.85;0.90;;;19.30;54.40;;;;;;4132777;28;20593;-59
2023/05/09 09:42:23;;;;;;;2.03;1.00;;;19.20;54.40;;;;;;4130313;28;20121;-59
2023/05/09 09:44:50;;;;;;;1.75;0.90;;;19.20;54.30;;;;;;4129856;28;20215;-59
2023/05/09 09:47:12;;;;;;;2.60;1.58;;;19.20;54.40;;;;;;4132309;28;20066;-59
2023/05/09 09:49:35;;;;;;;2.22;1.20;;;19.20;54.40;;;;;;4128767;28;20026;-59
2023/05/09 09:51:58;;;;;;;2.42;1.10;;;19.20;54.40;;;;;;4133866;28;20650;-59
2023/05/09 09:54:21;;;;;;;2.07;1.17;;;19.20;54.40;;;;;;4136672;28;20521;-59
2023/05/09 09:56:52;;;;;;;3.03;1.30;;;19.10;54.50;;;;;;4133912;28;20269;-59
2023/05/09 09:59:17;;;;;;;2.38;1.40;;;19.10;54.40;;;;;;4134699;28;20133;-59
2023/05/09 10:01:56;;;;;;;2.60;1.23;;;19.10;54.50;;;;;;4128499;28;20121;-59
2023/05/09 10:04:19;;;;;;;2.38;1.00;;;19.10;54.50;;;;;;4119386;28;20442;-59
2023/05/09 10:06:55;;;;;;;2.50;1.35;;;19.10;54.50;;;;;;4128992;28;20557;-59
2023/05/09 10:09:17;;;;;;;2.58;1.02;;;19.00;54.40;;;;;;4134644;28;20268;-59
2023/05/09 10:11:40;;;;;;;4.13;1.52;;;19.00;54.40;;;;;;4137906;28;20038;-59
2023/05/09 10:14:02;;;;;;;2.13;1.30;;;19.00;54.50;;;;;;4135894;28;20113;-59
2023/05/09 10:16:25;;;;;;;3.53;1.50;;;19.00;54.40;;;;;;4132859;28;20437;-60
2023/05/09 10:18:47;;;;;;;2.70;1.48;;;19.00;54.50;;;;;;4131549;28;20042;-61
2023/05/09 10:21:14;;;;;;;1.77;1.20;;;18.90;54.30;;;;;;4136342;28;20064;-60
2023/05/09 10:23:40;;;;;;;2.08;1.20;;;19.00;54.50;;;;;;4123902;28;20042;-59
2023/05/09 10:26:08;;;;;;;3.05;1.30;;;18.90;54.40;;;;;;4139263;28;20034;-60
2023/05/09 10:28:34;;;;;;;2.35;1.13;;;18.90;54.50;;;;;;4122778;28;20042;-59
2023/05/09 10:31:00;;;;;;;3.00;1.33;;;18.90;54.50;;;;;;4141319;28;20037;-60
2023/05/09 10:33:30;;;;;;;2.63;1.27;;;18.80;54.50;;;;;;4136407;28;20049;-59
2023/05/09 10:35:55;;;;;;;2.10;1.10;;;18.80;54.50;;;;;;4143347;28;20041;-59
2023/05/09 10:38:18;;;;;;;1.25;0.90;;;18.80;54.50;;;;;;4138925;28;20080;-59
2023/05/09 10:40:41;;;;;;;2.30;1.27;;;18.80;54.50;;;;;;4126407;28;20050;-59
2023/05/09 10:43:04;;;;;;;4.10;1.58;;;18.80;54.60;;;;;;4143207;28;20041;-59
2023/05/09 10:45:27;;;;;;;1.80;1.17;;;18.80;54.60;;;;;;4143430;28;20034;-60
2023/05/09 10:47:52;;;;;;;1.98;1.30;;;18.70;54.60;;;;;;4131072;28;20045;-60
2023/05/09 10:50:15;;;;;;;3.53;1.35;;;18.80;54.60;;;;;;4143506;28;20033;-61
2023/05/09 10:53:10;;;;;;;1.95;1.20;;;18.80;54.60;;;;;;4139821;28;20378;-60
2023/05/09 10:55:46;;;;;;;;;;;18.70;54.70;;;;;;4143150;28;20038;-59
2023/05/09 10:58:30;;;;;;;2.33;1.38;;;18.70;54.70;;;;;;4141841;28;19913;-59
2023/05/09 11:00:55;;;;;;;1.63;1.15;;;18.70;54.60;;;;;;4128430;28;20042;-60
2023/05/09 11:03:18;;;;;;;2.40;1.17;;;18.60;54.60;;;;;;4143380;28;20719;-59
2023/05/09 11:05:40;;;;;;;2.33;1.20;;;18.70;54.70;;;;;;4143585;28;20522;-59
2023/05/09 11:08:32;;;;;;;2.35;1.60;;;18.60;54.80;;;;;;4149076;28;20084;-59
2023/05/09 11:10:56;;;;;;;2.70;1.65;;;18.60;54.70;;;;;;4142025;28;20041;-59
2023/05/09 11:13:23;;;;;;;2.92;1.45;;;18.60;54.80;;;;;;4142848;28;20044;-56
2023/05/09 11:16:04;;;;;;;2.58;1.60;;;18.60;54.80;;;;;;4139241;28;20605;-56
2023/05/09 11:18:27;;;;;;;2.72;1.40;;;18.50;54.80;;;;;;4145662;28;20099;-57
2023/05/09 11:20:50;;;;;;;2.13;1.40;;;18.50;54.70;;;;;;4145939;28;20037;-59
2023/05/09 11:23:16;;;;;;;2.88;1.85;;;18.50;54.90;;;;;;4145451;28;20513;-58
2023/05/09 11:25:44;;;;;;;2.25;1.20;;;18.50;54.80;;;;;;4146746;28;20394;-57
2023/05/09 11:28:07;;;;;;;1.95;1.30;;;18.50;54.90;;;;;;4140958;28;20512;-60
2023/05/09 11:30:39;;;;;;;2.75;1.40;;;18.50;54.80;;;;;;4137536;28;20113;-59
2023/05/09 11:33:02;;;;;;;2.78;1.75;;;18.50;54.90;;;;;;4145151;28;20052;-59
2023/05/09 11:35:28;;;;;;;2.42;1.48;;;18.50;54.90;;;;;;4145129;28;20403;-59
2023/05/09 11:37:56;;;;;;;1.95;1.30;;;18.40;54.90;;;;;;4143256;28;20050;-57
2023/05/09 11:40:20;;;;;;;1.88;1.23;;;18.40;54.90;;;;;;4147279;28;20089;-59
2023/05/09 11:42:54;;;;;;;2.33;1.30;;;18.40;54.90;;;;;;4145607;28;20061;-59
2023/05/09 11:45:17;;;;;;;2.53;1.30;;;18.40;54.90;;;;;;4131532;28;20126;-60
2023/05/09 11:47:40;;;;;;;2.25;1.30;;;18.40;55.00;;;;;;4145034;28;20418;-59
2023/05/09 11:50:09;;;;;;;2.60;1.67;;;18.30;55.00;;;;;;4128642;28;20054;-60
2023/05/09 11:52:36;;;;;;;1.70;1.20;;;18.40;55.10;;;;;;4124321;28;20457;-58
2023/05/09 11:54:58;;;;;;;2.60;1.23;;;18.30;55.00;;;;;;4143438;28;20042;-55
2023/05/09 11:57:21;;;;;;;2.17;1.13;;;18.30;55.00;;;;;;4142812;28;20052;-58
2023/05/09 11:59:45;;;;;;;1.70;1.52;;;18.30;55.00;;;;;;4142966;28;20034;-59
2023/05/09 12:02:07;;;;;;;1.90;1.42;;;18.30;55.00;;;;;;4142652;28;20057;-60
2023/05/09 12:04:31;;;;;;;1.30;1.05;;;18.30;55.10;;;;;;4144416;28;20124;-60
2023/05/09 12:06:53;;;;;;;1.90;1.10;;;18.30;55.20;;;;;;4145855;28;20486;-60
2023/05/09 12:09:18;;;;;;;1.88;1.25;;;18.30;55.10;;;;;;4130458;28;20506;-59
2023/05/09 12:11:50;;;;;;;2.97;1.13;;;18.20;55.10;;;;;;4137224;28;20038;-56
2023/05/09 12:14:29;;;;;;;1.92;1.30;;;18.20;55.20;;;;;;4144028;28;20037;-59
2023/05/09 12:16:52;;;;;;;1.95;1.23;;;18.20;55.10;;;;;;4139544;28;20408;-66
2023/05/09 12:19:17;;;;;;;6.30;1.45;;;18.20;55.00;;;;;;4143083;28;20080;-68
2023/05/09 12:21:40;;;;;;;8.73;1.83;;;18.20;55.40;;;;;;4144699;28;20037;-64
2023/05/09 12:24:02;;;;;;;4.47;1.38;;;18.20;55.40;;;;;;4149684;28;20115;-65
2023/05/09 12:26:25;;;;;;;2.85;1.33;;;18.20;55.40;;;;;;4141860;28;20049;-65
2023/05/09 12:28:49;;;;;;;4.97;1.35;;;18.20;55.60;;;;;;4140130;28;20045;-65
2023/05/09 12:31:12;;;;;;;5.25;1.08;;;18.20;55.60;;;;;;4143209;28;20030;-60